Time;durP1;ratioP1;P1;durP2;ratioP2;P2;SDS_P1;SDS_P2;PMS_P1;PMS_P2;Temp;Humidity;BMP_temperature;BMP_pressure;BME280_temperature;BME280_humidity;BME280_pressure;Samples;Min_cycle;Max_cycle;Signal;HPM_P1;HPM_P2
2022/07/02 00:00:05;;;;;;;6.90;4.60;;;;;;;22.14;73.06;100440.53;106229;1273;22859;-73
2022/07/02 00:02:42;;;;;;;6.50;4.60;;;;;;;22.22;73.05;100457.85;105977;1271;24228;-75
2022/07/02 00:05:12;;;;;;;9.40;5.20;;;;;;;22.29;73.40;100472.50;106122;1273;24264;-73
2022/07/02 00:07:38;;;;;;;8.10;5.10;;;;;;;22.37;73.11;100486.96;106130;1273;24274;-75
2022/07/02 00:10:06;;;;;;;5.80;4.50;;;;;;;22.46;73.27;100491.81;106369;1273;26623;-74
2022/07/02 00:12:32;;;;;;;10.80;4.80;;;;;;;22.50;73.05;100495.91;105926;1273;22573;-75
2022/07/02 00:14:59;;;;;;;7.70;4.70;;;;;;;22.54;72.89;100488.48;106234;1273;24000;-75
2022/07/02 00:17:26;;;;;;;7.30;4.60;;;;;;;22.56;72.59;100483.54;106115;1273;25317;-76
2022/07/02 00:19:53;;;;;;;7.40;5.20;;;;;;;22.57;72.37;100481.84;106192;1273;24359;-75
2022/07/02 00:22:21;;;;;;;9.50;4.50;;;;;;;22.55;72.17;100489.20;105852;1273;22707;-74
2022/07/02 00:24:47;;;;;;;7.70;6.00;;;;;;;22.40;72.34;100505.44;106006;1273;22584;-74
2022/07/02 00:27:17;;;;;;;7.80;4.90;;;;;;;22.39;73.19;100501.23;106397;1274;22884;-70
2022/07/02 00:29:51;;;;;;;6.60;5.70;;;;;;;22.44;73.15;100496.06;106059;1273;26623;-76
2022/07/02 00:32:18;;;;;;;9.20;4.70;;;;;;;22.49;73.12;100492.20;106168;1273;22538;-77
2022/07/02 00:34:45;;;;;;;7.30;4.20;;;;;;;22.50;72.78;100484.98;106088;1273;22557;-75
2022/07/02 00:37:13;;;;;;;7.50;4.30;;;;;;;22.53;72.74;100443.53;105882;1279;25317;-75
2022/07/02 00:39:40;;;;;;;5.80;5.20;;;;;;;22.56;72.74;100388.65;105969;1279;22564;-76
2022/07/02 00:42:09;;;;;;;7.40;5.20;;;;;;;22.56;72.75;100374.27;106166;1280;25273;-73
2022/07/02 00:44:37;;;;;;;5.10;4.50;;;;;;;22.42;72.35;100407.92;105861;1279;25353;-73
2022/07/02 00:47:07;;;;;;;8.00;5.60;;;;;;;22.17;73.23;100431.23;105851;1279;22549;-75
2022/07/02 00:49:35;;;;;;;6.30;5.60;;;;;;;21.87;73.86;100439.50;105792;1279;23199;-76
2022/07/02 00:52:03;;;;;;;9.60;6.40;;;;;;;21.77;74.47;100466.94;105663;1279;22835;-74
2022/07/02 00:54:30;;;;;;;9.00;6.70;;;;;;;21.79;74.63;100483.70;105686;1273;25384;-73
2022/07/02 00:56:56;;;;;;;7.20;6.50;;;;;;;21.82;74.69;100459.70;106006;1273;22563;-75
2022/07/02 00:59:24;;;;;;;7.60;6.20;;;;;;;21.84;74.74;100457.98;106080;1273;25273;-75
2022/07/02 01:01:51;;;;;;;8.10;5.80;;;;;;;21.83;74.69;100489.74;105870;1273;22709;-73
2022/07/02 01:04:18;;;;;;;8.50;6.90;;;;;;;21.86;75.22;100534.77;105750;1278;25393;-73
2022/07/02 01:06:45;;;;;;;6.70;6.00;;;;;;;21.92;75.33;100534.48;105761;1278;22560;-74
2022/07/02 01:12:00;;;;;;;8.50;6.10;;;;;;;21.86;75.51;100499.99;105642;1278;22880;-75
2022/07/02 01:14:28;;;;;;;6.50;5.90;;;;;;;21.93;75.60;100501.23;105802;1278;22523;-76
2022/07/02 01:16:55;;;;;;;10.80;6.50;;;;;;;21.90;75.33;100497.98;105881;1279;23099;-74
2022/07/02 01:19:23;;;;;;;8.20;6.80;;;;;;;21.93;75.48;100491.02;105559;1279;22667;-75
2022/07/02 01:22:31;;;;;;;9.00;6.70;;;;;;;21.97;75.42;100495.79;105629;1273;22548;-76
2022/07/02 01:24:58;;;;;;;8.20;6.80;;;;;;;21.90;75.19;100497.09;105462;1281;22636;-81
2022/07/02 01:27:24;;;;;;;7.90;7.10;;;;;;;21.84;75.40;100497.59;105693;1274;25349;-76
2022/07/02 01:29:51;;;;;;;10.50;7.50;;;;;;;21.81;75.89;100496.48;105983;1273;22851;-75
2022/07/02 01:32:18;;;;;;;8.60;7.20;;;;;;;21.85;76.11;100500.77;106200;1271;25300;-76
2022/07/02 01:34:48;;;;;;;9.30;7.70;;;;;;;21.91;76.28;100506.90;106042;1273;24685;-74
2022/07/02 01:37:17;;;;;;;9.10;7.80;;;;;;;21.91;76.20;100505.09;106089;1273;25274;-75
2022/07/02 01:39:45;;;;;;;9.60;8.20;;;;;;;21.92;76.26;100507.56;106166;1273;22732;-76
2022/07/02 01:42:12;;;;;;;11.80;8.60;;;;;;;21.92;76.37;100501.45;106072;1273;24296;-73
2022/07/02 01:44:39;;;;;;;10.20;9.10;;;;;;;21.96;76.45;100499.77;106108;1273;25462;-74
2022/07/02 01:47:08;;;;;;;10.50;9.60;;;;;;;22.02;76.56;100498.56;106143;1273;25345;-77
2022/07/02 01:49:36;;;;;;;10.60;9.30;;;;;;;22.09;76.61;100501.08;106146;1271;23089;-74
2022/07/02 01:52:04;;;;;;;10.70;9.70;;;;;;;22.11;76.75;100511.89;106005;1273;25274;-77
2022/07/02 01:54:31;;;;;;;10.80;9.70;;;;;;;22.15;76.54;100523.89;106119;1271;22691;-75
2022/07/02 01:56:57;;;;;;;10.70;9.60;;;;;;;22.21;76.92;100538.23;106022;1273;27100;-76
2022/07/02 01:59:23;;;;;;;11.20;10.20;;;;;;;22.31;76.99;100538.63;106237;1272;25385;-77
2022/07/02 02:01:50;;;;;;;13.40;11.40;;;;;;;22.39;76.93;100545.13;106165;1273;23330;-77
2022/07/02 02:04:16;;;;;;;11.20;10.10;;;;;;;22.47;76.92;100551.50;105979;1273;24383;-79
2022/07/02 02:06:43;;;;;;;11.30;10.10;;;;;;;22.51;76.79;100560.27;106153;1273;22540;-76
2022/07/02 02:09:09;;;;;;;12.30;11.00;;;;;;;22.55;76.93;100566.35;106287;1273;23816;-73
2022/07/02 02:11:36;;;;;;;15.40;11.70;;;;;;;22.60;76.91;100565.34;106477;1273;22716;-73
2022/07/02 02:14:04;;;;;;;13.70;12.30;;;;;;;22.67;76.61;100567.13;106372;1273;22572;-73
2022/07/02 02:16:31;;;;;;;14.90;13.00;;;;;;;22.68;76.38;100553.41;106373;1274;25444;-71
2022/07/02 02:18:59;;;;;;;16.40;12.70;;;;;;;22.61;76.23;100546.80;106233;1273;22591;-74
2022/07/02 02:21:28;;;;;;;14.40;11.60;;;;;;;22.61;76.31;100556.48;105856;1274;22591;-78
2022/07/02 02:23:55;;;;;;;12.80;11.50;;;;;;;22.63;76.48;100557.28;106095;1273;25624;-74
2022/07/02 02:26:22;;;;;;;14.30;12.90;;;;;;;22.69;76.41;100560.01;106121;1273;22587;-73
2022/07/02 02:28:48;;;;;;;14.60;13.10;;;;;;;22.74;76.22;100558.80;106247;1273;22564;-74
2022/07/02 02:31:15;;;;;;;14.50;13.00;;;;;;;22.71;75.97;100559.67;106172;1274;23988;-74
2022/07/02 02:33:41;;;;;;;15.50;12.10;;;;;;;22.62;75.95;100570.96;106167;1271;25534;-73
2022/07/02 02:36:07;;;;;;;13.60;12.30;;;;;;;22.58;76.30;100580.55;106265;1273;24242;-75
2022/07/02 02:38:37;;;;;;;13.60;11.70;;;;;;;22.57;76.47;100574.45;106225;1271;22691;-78
2022/07/02 02:41:09;;;;;;;15.40;12.90;;;;;;;22.62;76.86;100581.40;106276;1271;22649;-75
2022/07/02 02:43:37;;;;;;;15.50;12.70;;;;;;;22.67;76.70;100580.98;106453;1271;22542;-77
2022/07/02 02:46:05;;;;;;;15.20;13.40;;;;;;;22.68;76.72;100580.16;106347;1271;25270;-76
2022/07/02 02:48:34;;;;;;;13.40;12.00;;;;;;;22.76;76.82;100583.45;106342;1271;22762;-75
2022/07/02 02:51:02;;;;;;;14.00;12.00;;;;;;;22.81;76.68;100584.10;106166;1271;24551;-75
2022/07/02 02:53:28;;;;;;;12.80;11.60;;;;;;;22.82;76.67;100580.27;106305;1271;22608;-74
2022/07/02 02:55:54;;;;;;;14.20;12.90;;;;;;;22.81;76.82;100571.01;106463;1271;25395;-75
2022/07/02 02:58:20;;;;;;;14.20;12.90;;;;;;;22.85;76.69;100557.85;106316;1271;22538;-72
2022/07/02 03:00:47;;;;;;;14.80;13.40;;;;;;;22.91;76.71;100548.31;106428;1271;22635;-74
2022/07/02 03:03:13;;;;;;;14.60;13.10;;;;;;;22.94;76.77;100548.34;106283;1271;23977;-74
2022/07/02 03:05:39;;;;;;;14.10;12.70;;;;;;;22.94;76.61;100546.87;106178;1271;24232;-73
2022/07/02 03:08:05;;;;;;;14.10;12.70;;;;;;;22.95;76.61;100541.26;106230;1271;22766;-74
2022/07/02 03:10:31;;;;;;;14.20;12.80;;;;;;;22.99;76.57;100526.48;106336;1271;24256;-74
2022/07/02 03:12:58;;;;;;;14.70;13.10;;;;;;;23.02;76.29;100509.10;106344;1271;22584;-77
2022/07/02 03:15:25;;;;;;;14.00;12.70;;;;;;;22.98;76.02;100505.01;106375;1271;25273;-74
2022/07/02 03:17:51;;;;;;;15.10;13.80;;;;;;;22.97;76.12;100503.81;106157;1274;25267;-73
2022/07/02 03:20:18;;;;;;;13.30;11.90;;;;;;;22.99;76.26;100506.93;106193;1271;23969;-74
2022/07/02 03:22:44;;;;;;;13.40;11.80;;;;;;;23.01;75.98;100502.30;106107;1273;22564;-75
2022/07/02 03:25:11;;;;;;;13.60;11.50;;;;;;;23.01;75.94;100503.59;106421;1271;24302;-77
2022/07/02 03:27:38;;;;;;;13.00;11.70;;;;;;;22.95;76.03;100505.16;106171;1271;25377;-74
2022/07/02 03:30:06;;;;;;;14.90;12.80;;;;;;;22.94;75.97;100510.08;106276;1271;22547;-75
2022/07/02 03:32:32;;;;;;;14.60;12.60;;;;;;;22.91;76.03;100518.38;106631;1271;22559;-74
2022/07/02 03:34:58;;;;;;;13.80;12.40;;;;;;;22.90;76.24;100531.55;106453;1271;24235;-86
2022/07/02 03:37:28;;;;;;;13.30;12.00;;;;;;;22.92;76.38;100525.65;105973;1273;25278;-74
2022/07/02 03:39:55;;;;;;;12.50;11.40;;;;;;;22.88;76.14;100520.48;106363;1271;22557;-78
2022/07/02 03:42:22;;;;;;;14.10;12.70;;;;;;;22.77;75.90;100520.96;106333;1273;22626;-74
2022/07/02 03:44:48;;;;;;;15.30;13.70;;;;;;;22.62;75.85;100532.55;106662;1271;25669;-76
2022/07/02 03:47:14;;;;;;;15.60;14.00;;;;;;;22.46;75.98;100543.86;106309;1271;22687;-74
2022/07/02 03:49:40;;;;;;;14.90;13.40;;;;;;;22.32;76.36;100546.98;106317;1271;25496;-76
2022/07/02 03:52:07;;;;;;;11.90;10.90;;;;;;;22.20;76.41;100547.96;106142;1273;22586;-72
2022/07/02 03:54:33;;;;;;;14.80;13.30;;;;;;;22.02;76.14;100559.73;106087;1274;23220;-74
2022/07/02 03:56:59;;;;;;;13.10;11.90;;;;;;;21.87;76.67;100566.10;106147;1271;22537;-76
2022/07/02 03:59:25;;;;;;;16.60;12.50;;;;;;;21.71;76.64;100565.44;106261;1271;24311;-77
2022/07/02 04:01:55;;;;;;;16.40;13.70;;;;;;;21.58;77.28;100577.09;106280;1271;25527;-73
2022/07/02 04:04:21;;;;;;;13.10;11.80;;;;;;;21.48;77.48;100581.67;106092;1273;22579;-74
2022/07/02 04:06:47;;;;;;;17.20;12.80;;;;;;;21.43;77.83;100583.94;106277;1271;24759;-77
2022/07/02 04:09:13;;;;;;;20.30;12.70;;;;;;;21.34;77.95;100578.67;106293;1271;25373;-75
2022/07/02 04:11:40;;;;;;;12.20;11.00;;;;;;;21.28;78.42;100578.05;106338;1271;26017;-76
2022/07/02 04:14:07;;;;;;;13.30;10.60;;;;;;;21.22;78.54;100568.14;106417;1271;24742;-74
2022/07/02 04:16:33;;;;;;;10.10;9.20;;;;;;;21.18;78.59;100575.20;106435;1271;22633;-74
2022/07/02 04:18:59;;;;;;;12.80;11.50;;;;;;;21.12;78.91;100580.47;106467;1271;22982;-77
2022/07/02 04:21:41;;;;;;;11.90;10.80;;;;;;;21.13;78.92;100570.06;106049;1272;273909;-74
2022/07/02 04:24:08;;;;;;;14.10;12.40;;;;;;;21.14;79.10;100572.33;106124;1273;25500;-74
2022/07/02 04:26:34;;;;;;;12.50;11.00;;;;;;;21.11;79.36;100576.79;105629;1279;22551;-74
2022/07/02 04:29:01;;;;;;;13.00;11.60;;;;;;;21.12;79.34;100584.61;105222;1282;22963;-75
2022/07/02 04:31:30;;;;;;;12.10;10.90;;;;;;;21.15;79.17;100587.50;104870;1288;22591;-74
2022/07/02 04:33:56;;;;;;;14.30;12.90;;;;;;;21.09;79.19;100585.82;104856;1285;24397;-75
2022/07/02 04:36:22;;;;;;;14.80;13.30;;;;;;;21.02;79.14;100593.49;104806;1287;22700;-78
2022/07/02 04:38:49;;;;;;;15.40;13.50;;;;;;;20.93;78.84;100592.86;104975;1286;23505;-73
2022/07/02 04:41:15;;;;;;;13.60;12.20;;;;;;;20.85;79.27;100594.29;105160;1285;25254;-74
2022/07/02 04:43:41;;;;;;;13.10;11.80;;;;;;;20.83;79.21;100603.18;104538;1290;22564;-74
2022/07/02 04:46:07;;;;;;;15.10;13.40;;;;;;;20.79;79.40;100610.86;105327;1287;25424;-75
2022/07/02 04:48:33;;;;;;;16.70;13.70;;;;;;;20.74;79.36;100609.31;105913;1281;22518;-74
2022/07/02 04:51:00;;;;;;;15.40;12.60;;;;;;;20.75;79.32;100619.32;106710;1275;25397;-71
2022/07/02 04:53:26;;;;;;;11.90;9.30;;;;;;;20.75;79.33;100629.84;107633;1275;25390;-71
2022/07/02 04:55:52;;;;;;;14.20;12.40;;;;;;;20.73;79.79;100641.77;106965;1274;23945;-71
2022/07/02 04:58:19;;;;;;;17.30;13.80;;;;;;;20.67;79.67;100637.40;107673;1274;22557;-70
2022/07/02 05:00:45;;;;;;;15.90;12.60;;;;;;;20.61;79.58;100637.52;107512;1277;24295;-70
2022/07/02 05:03:11;;;;;;;16.30;13.20;;;;;;;20.56;80.09;100648.11;108172;1271;22541;-70
2022/07/02 05:05:38;;;;;;;14.60;11.20;;;;;;;20.51;79.99;100649.58;108094;1271;22496;-69
2022/07/02 05:08:04;;;;;;;10.50;9.40;;;;;;;20.48;79.79;100656.35;107701;1274;22542;-70
2022/07/02 05:10:31;;;;;;;15.10;10.20;;;;;;;20.47;79.93;100660.67;107694;1273;22539;-71
2022/07/02 05:12:57;;;;;;;12.40;8.80;;;;;;;20.52;79.92;100662.75;108346;1274;25350;-72
2022/07/02 05:15:24;;;;;;;12.70;9.20;;;;;;;20.45;79.41;100650.22;108273;1274;22580;-73
2022/07/02 05:17:50;;;;;;;10.90;8.30;;;;;;;20.39;79.68;100660.50;107699;1274;22490;-69
2022/07/02 05:20:16;;;;;;;10.90;7.70;;;;;;;20.35;79.66;100665.52;107597;1273;22676;-69
2022/07/02 05:22:42;;;;;;;12.10;8.20;;;;;;;20.33;79.62;100666.52;107047;1274;22502;-72
2022/07/02 05:25:08;;;;;;;10.80;8.00;;;;;;;20.31;79.64;100664.98;106791;1274;24239;-73
2022/07/02 05:27:34;;;;;;;9.10;6.90;;;;;;;20.28;79.85;100671.17;106428;1273;22707;-74
2022/07/02 05:30:01;;;;;;;9.70;8.10;;;;;;;20.31;79.87;100677.85;106247;1274;27016;-71
2022/07/02 05:32:27;;;;;;;7.80;6.80;;;;;;;20.28;79.70;100680.86;105954;1275;22607;-70
2022/07/02 05:34:53;;;;;;;7.70;6.90;;;;;;;20.26;79.61;100675.41;106231;1274;22561;-75
2022/07/02 05:37:23;;;;;;;10.80;7.50;;;;;;;20.36;79.49;100674.23;106332;1274;25276;-71
2022/07/02 05:39:50;;;;;;;8.10;7.10;;;;;;;20.47;79.20;100672.31;106331;1275;22561;-72
2022/07/02 05:42:16;;;;;;;5.90;5.10;;;;;;;20.55;78.94;100683.57;106123;1274;25436;-73
2022/07/02 05:44:42;;;;;;;7.70;5.90;;;;;;;20.67;78.67;100691.45;105863;1274;24455;-73
2022/07/02 05:47:09;;;;;;;6.40;5.80;;;;;;;20.75;78.46;100689.08;105892;1277;25264;-71
2022/07/02 05:49:35;;;;;;;8.80;6.10;;;;;;;20.78;77.79;100693.59;105522;1281;22570;-74
2022/07/02 05:52:01;;;;;;;8.40;5.70;;;;;;;20.77;77.77;100695.09;105658;1281;22903;-75
2022/07/02 05:54:27;;;;;;;7.50;6.80;;;;;;;20.74;77.47;100694.48;105665;1281;26591;-76
2022/07/02 05:56:53;;;;;;;9.80;6.10;;;;;;;20.70;77.62;100696.11;105531;1284;22752;-75
2022/07/02 05:59:21;;;;;;;9.70;7.60;;;;;;;20.72;77.68;100704.96;105660;1281;22586;-71
2022/07/02 06:01:47;;;;;;;8.50;6.90;;;;;;;20.70;77.37;100709.38;105777;1280;25440;-72
2022/07/02 06:04:14;;;;;;;8.70;6.80;;;;;;;20.65;77.22;100711.21;105697;1281;23295;-74
2022/07/02 06:09:25;;;;;;;8.10;7.30;;;;;;;20.59;77.33;100707.34;105695;1281;25344;-74
2022/07/02 06:11:52;;;;;;;8.30;7.20;;;;;;;20.61;77.19;100704.59;105804;1277;25479;-74
2022/07/02 06:14:18;;;;;;;7.70;6.90;;;;;;;20.64;77.33;100705.66;105665;1278;24076;-73
2022/07/02 06:16:46;;;;;;;15.10;7.50;;;;;;;20.65;77.00;100704.58;105945;1277;22591;-73
2022/07/02 06:19:12;;;;;;;7.70;6.90;;;;;;;20.65;76.97;100707.96;105947;1278;22654;-76
2022/07/02 06:21:39;;;;;;;8.10;7.30;;;;;;;20.62;76.97;100705.96;105732;1281;22600;-73
2022/07/02 06:24:10;;;;;;;7.80;7.00;;;;;;;20.60;77.08;100712.86;105955;1277;25401;-74
2022/07/02 06:26:36;;;;;;;12.00;7.60;;;;;;;20.54;76.95;100713.14;105995;1278;22543;-77
2022/07/02 06:29:03;;;;;;;8.30;7.20;;;;;;;20.47;77.24;100720.23;105906;1277;26640;-75
2022/07/02 06:31:29;;;;;;;8.10;6.20;;;;;;;20.49;77.34;100722.27;105860;1277;22797;-75
2022/07/02 06:33:55;;;;;;;10.90;7.80;;;;;;;20.48;77.31;100733.08;106049;1272;24391;-81
2022/07/02 06:36:24;;;;;;;7.90;7.20;;;;;;;20.51;77.37;100741.90;106419;1271;24286;-76
2022/07/02 06:38:51;;;;;;;10.80;6.80;;;;;;;20.50;77.44;100752.29;106241;1271;22538;-75
2022/07/02 06:44:04;;;;;;;7.70;6.60;;;;;;;20.52;77.35;100757.44;106088;1274;22679;-77
2022/07/02 06:46:33;;;;;;;7.70;6.60;;;;;;;20.54;77.36;100766.61;106212;1274;22636;-78
2022/07/02 06:49:00;;;;;;;8.20;6.00;;;;;;;20.57;77.33;100766.32;105920;1274;22607;-77
2022/07/02 06:51:27;;;;;;;5.40;4.90;;;;;;;20.60;77.25;100770.81;106071;1274;22647;-79
2022/07/02 06:53:59;;;;;;;5.10;4.60;;;;;;;20.63;77.11;100776.77;105801;1274;23909;-77
2022/07/02 06:56:35;;;;;;;5.90;5.20;;;;;;;20.66;77.11;100780.92;106153;1271;22859;-73
2022/07/02 06:59:04;;;;;;;4.50;4.10;;;;;;;20.66;76.98;100781.64;106038;1272;24513;-77
2022/07/02 07:01:30;;;;;;;4.90;4.50;;;;;;;20.60;77.01;100786.21;106237;1274;22810;-78
2022/07/02 07:08:23;;;;;;;4.40;4.00;;;;;;;20.60;77.02;100801.63;106342;1272;22588;-78
2022/07/02 07:10:49;;;;;;;5.80;4.70;;;;;;;20.55;77.05;100809.85;106599;1271;22694;-77
2022/07/02 07:13:15;;;;;;;3.90;3.60;;;;;;;20.52;77.11;100807.31;106837;1272;24198;-78
2022/07/02 07:15:41;;;;;;;4.00;3.70;;;;;;;20.54;77.32;100817.79;107195;1271;22587;-77
2022/07/02 07:18:08;;;;;;;4.40;3.50;;;;;;;20.59;77.20;100824.91;107253;1272;22586;-76
2022/07/02 07:20:36;;;;;;;6.50;3.90;;;;;;;20.64;77.08;100825.77;106625;1274;23939;-75
2022/07/02 07:23:02;;;;;;;5.30;4.80;;;;;;;20.63;76.99;100837.79;106314;1271;22507;-79
2022/07/02 07:25:28;;;;;;;6.50;5.40;;;;;;;20.63;76.89;100835.09;106630;1271;22658;-76
2022/07/02 07:27:54;;;;;;;6.30;4.80;;;;;;;20.64;76.67;100838.80;107063;1271;22735;-76
2022/07/02 07:30:21;;;;;;;4.00;3.60;;;;;;;20.66;76.88;100837.83;107079;1274;22707;-76
2022/07/02 07:32:47;;;;;;;5.20;4.70;;;;;;;20.62;76.36;100842.13;106394;1271;22819;-83
2022/07/02 07:35:13;;;;;;;5.50;4.90;;;;;;;20.56;76.36;100839.16;106209;1271;22656;-78
2022/07/02 07:37:39;;;;;;;6.20;4.70;;;;;;;20.52;76.52;100845.96;106689;1274;25268;-78
2022/07/02 07:40:11;;;;;;;6.30;5.70;;;;;;;20.49;76.82;100846.46;107774;1272;22494;-76
2022/07/02 07:43:32;;;;;;;6.50;5.60;;;;;;;20.46;76.94;100851.95;108976;1274;22549;-76
2022/07/02 07:45:58;;;;;;;6.50;5.90;;;;;;;20.45;76.96;100854.48;106363;1271;24355;-78
2022/07/02 07:48:25;;;;;;;6.70;5.90;;;;;;;20.46;77.00;100857.49;106138;1271;26560;-77
2022/07/02 07:50:51;;;;;;;6.20;5.20;;;;;;;20.48;77.12;100857.41;106261;1273;25269;-76
2022/07/02 07:53:18;;;;;;;7.10;5.60;;;;;;;20.47;77.04;100859.60;106225;1271;25499;-77
2022/07/02 07:55:45;;;;;;;7.50;5.80;;;;;;;20.45;76.90;100862.01;106303;1271;24362;-75
2022/07/02 07:58:12;;;;;;;9.10;7.20;;;;;;;20.47;76.79;100869.95;106106;1272;22548;-76
2022/07/02 08:00:38;;;;;;;7.10;6.40;;;;;;;20.46;76.73;100877.36;105824;1273;22548;-78
2022/07/02 08:03:04;;;;;;;7.20;6.50;;;;;;;20.43;76.81;100879.96;106156;1274;23333;-75
2022/07/02 08:05:30;;;;;;;6.70;6.00;;;;;;;20.46;76.86;100879.86;106117;1275;22537;-75
2022/07/02 08:07:57;;;;;;;7.10;6.20;;;;;;;20.49;76.75;100885.78;106082;1272;26587;-74
2022/07/02 08:10:23;;;;;;;6.80;6.20;;;;;;;20.49;76.66;100888.50;106194;1271;22829;-74
2022/07/02 08:12:50;;;;;;;7.40;6.70;;;;;;;20.49;76.64;100886.15;106099;1274;25085;-74
2022/07/02 08:15:17;;;;;;;8.80;6.10;;;;;;;20.53;76.74;100891.02;105780;1277;25367;-72
2022/07/02 08:17:43;;;;;;;5.10;4.60;;;;;;;20.57;76.70;100891.57;105901;1276;23926;-77
2022/07/02 08:20:11;;;;;;;6.30;5.60;;;;;;;20.60;76.59;100893.05;105724;1280;25400;-74
2022/07/02 08:22:38;;;;;;;6.90;6.30;;;;;;;20.60;76.46;100898.56;105611;1280;24535;-77
2022/07/02 08:25:07;;;;;;;7.40;6.70;;;;;;;20.59;76.26;100898.82;105692;1280;22572;-76
2022/07/02 08:27:33;;;;;;;7.30;6.10;;;;;;;20.56;76.25;100898.40;105793;1280;23214;-74
2022/07/02 08:29:59;;;;;;;9.20;6.20;;;;;;;20.57;76.27;100896.90;105394;1284;24242;-76
2022/07/02 08:32:26;;;;;;;6.50;5.90;;;;;;;20.57;76.19;100895.48;105775;1280;22702;-73
2022/07/02 08:34:54;;;;;;;5.40;4.90;;;;;;;20.58;76.11;100898.66;105700;1278;23064;-73
2022/07/02 08:37:22;;;;;;;7.10;6.40;;;;;;;20.54;76.03;100894.20;106122;1277;24240;-75
2022/07/02 08:39:49;;;;;;;8.30;6.40;;;;;;;20.50;76.43;100888.46;106121;1274;22563;-77
2022/07/02 08:42:28;;;;;;;6.20;5.70;;;;;;;20.52;76.47;100891.23;106100;1271;22553;-77
2022/07/02 08:44:59;;;;;;;6.90;6.20;;;;;;;20.59;76.65;100890.95;106241;1274;22678;-76
2022/07/02 08:47:27;;;;;;;7.80;7.10;;;;;;;20.67;76.42;100896.33;106277;1271;24398;-75
2022/07/02 08:49:55;;;;;;;7.40;6.80;;;;;;;20.69;76.03;100903.58;106226;1271;25426;-76
2022/07/02 08:52:25;;;;;;;7.50;5.80;;;;;;;20.70;76.17;100904.23;106121;1271;22569;-75
2022/07/02 08:54:53;;;;;;;6.40;5.90;;;;;;;20.79;76.00;100907.61;106095;1271;25338;-80
2022/07/02 08:57:21;;;;;;;9.00;6.10;;;;;;;20.96;76.21;100906.71;106196;1272;22598;-74
2022/07/02 08:59:47;;;;;;;8.70;6.40;;;;;;;21.08;75.82;100901.73;106332;1272;22566;-77
2022/07/02 09:02:15;;;;;;;9.10;7.30;;;;;;;21.08;75.60;100899.77;106377;1271;22483;-77
2022/07/02 09:04:46;;;;;;;7.50;6.90;;;;;;;21.03;75.33;100908.92;106304;1273;22728;-83
2022/07/02 09:07:17;;;;;;;7.90;7.20;;;;;;;20.89;74.98;100910.94;106331;1273;22495;-76
2022/07/02 09:09:45;;;;;;;8.50;7.70;;;;;;;20.78;75.43;100908.38;106184;1276;24263;-75
2022/07/02 09:12:14;;;;;;;9.00;7.70;;;;;;;20.75;75.67;100917.25;106066;1273;24273;-76
2022/07/02 09:14:42;;;;;;;8.10;6.80;;;;;;;20.66;75.71;100929.08;106254;1273;23979;-74
2022/07/02 09:17:12;;;;;;;8.90;6.60;;;;;;;20.55;75.73;100927.60;106230;1271;25526;-79
2022/07/02 09:19:39;;;;;;;7.30;6.40;;;;;;;20.54;75.96;100924.95;105889;1277;25951;-75
2022/07/02 09:22:07;;;;;;;7.60;6.90;;;;;;;20.55;75.88;100927.77;105918;1279;22834;-74
2022/07/02 09:24:39;;;;;;;7.70;7.00;;;;;;;20.59;75.97;100932.08;105825;1281;22728;-74
2022/07/02 09:27:11;;;;;;;7.90;7.10;;;;;;;20.63;75.81;100926.91;105583;1284;23034;-82
2022/07/02 09:29:46;;;;;;;6.00;5.40;;;;;;;20.59;75.84;100934.39;105696;1283;24276;-83
2022/07/02 09:32:15;;;;;;;6.50;5.80;;;;;;;20.62;75.87;100937.50;105585;1284;22571;-82
2022/07/02 09:34:47;;;;;;;4.60;4.30;;;;;;;20.65;75.66;100931.10;105583;1284;22550;-81
2022/07/02 09:37:17;;;;;;;5.00;4.40;;;;;;;20.57;75.51;100938.06;105568;1281;22583;-80
2022/07/02 09:39:46;;;;;;;3.40;3.10;;;;;;;20.52;75.32;100938.80;105660;1282;22647;-81
2022/07/02 09:42:27;;;;;;;6.30;5.00;;;;;;;20.47;75.50;100937.38;105531;1282;23233;-77
2022/07/02 09:44:55;;;;;;;5.00;3.80;;;;;;;20.45;75.72;100937.14;105652;1280;23971;-75
2022/07/02 09:47:48;;;;;;;3.90;3.50;;;;;;;20.46;75.66;100937.25;105631;1277;25357;-83
2022/07/02 09:50:17;;;;;;;5.30;2.80;;;;;;;20.45;75.56;100940.89;105773;1277;23973;-76
2022/07/02 09:53:02;;;;;;;2.10;1.90;;;;;;;20.46;75.47;100934.58;106260;1278;24294;-74
2022/07/02 09:55:30;;;;;;;2.50;1.90;;;;;;;20.44;75.21;100938.42;105675;1279;22667;-77
2022/07/02 09:58:02;;;;;;;2.40;2.20;;;;;;;20.45;75.29;100936.23;106020;1273;23987;-81
2022/07/02 10:00:30;;;;;;;2.60;1.70;;;;;;;20.44;75.20;100935.55;106251;1273;24864;-77
2022/07/02 10:02:59;;;;;;;2.50;1.50;;;;;;;20.48;75.11;100931.65;106368;1273;22572;-79
2022/07/02 10:05:28;;;;;;;3.70;1.50;;;;;;;20.59;75.30;100928.14;106067;1274;25322;-79
2022/07/02 10:07:58;;;;;;;1.50;1.30;;;;;;;20.75;74.84;100939.27;106101;1273;24238;-81
2022/07/02 10:10:36;;;;;;;1.40;1.30;;;;;;;20.81;74.43;100937.23;106026;1274;22544;-78
2022/07/02 10:13:03;;;;;;;1.50;1.40;;;;;;;20.86;74.33;100942.56;105565;1281;22553;-78
2022/07/02 10:15:31;;;;;;;1.30;1.00;;;;;;;20.86;74.04;100946.33;105779;1277;22569;-76
2022/07/02 10:18:03;;;;;;;1.10;1.00;;;;;;;20.89;74.01;100940.10;105936;1277;22728;-82
2022/07/02 10:20:31;;;;;;;1.00;1.00;;;;;;;20.95;73.80;100949.73;106068;1279;25273;-81
2022/07/02 10:23:02;;;;;;;2.60;1.10;;;;;;;20.96;73.69;100957.56;106027;1278;25445;-84
2022/07/02 10:25:30;;;;;;;2.50;1.10;;;;;;;20.88;73.77;100963.93;105946;1277;22493;-79
2022/07/02 10:27:57;;;;;;;2.50;1.10;;;;;;;20.89;73.85;100960.14;106123;1277;22592;-82
2022/07/02 10:33:15;;;;;;;1.50;1.30;;;;;;;20.71;73.59;100962.16;107131;1274;22638;-75
2022/07/02 10:35:42;;;;;;;1.70;1.60;;;;;;;20.71;73.52;100961.80;107371;1274;25354;-77
2022/07/02 10:38:09;;;;;;;1.40;1.10;;;;;;;20.66;73.11;100962.73;108550;1273;22632;-79
2022/07/02 10:40:49;;;;;;;1.40;1.30;;;;;;;20.55;73.29;100963.56;106934;1273;23609;-80
2022/07/02 10:43:19;;;;;;;2.20;1.40;;;;;;;20.56;73.37;100971.02;107116;1274;23266;-81
2022/07/02 10:45:45;;;;;;;1.20;1.10;;;;;;;20.54;73.13;100971.25;107374;1271;22538;-80
2022/07/02 10:48:13;;;;;;;1.60;1.50;;;;;;;20.56;72.99;100972.64;107491;1271;22612;-75
2022/07/02 10:50:43;;;;;;;1.50;1.40;;;;;;;20.54;73.03;100971.29;107426;1271;22570;-77
2022/07/02 10:53:20;;;;;;;1.60;1.20;;;;;;;20.51;72.82;100972.66;107750;1271;22980;-84
2022/07/02 10:55:52;;;;;;;1.60;1.50;;;;;;;20.49;72.76;100972.74;107313;1271;22619;-79
2022/07/02 10:58:24;;;;;;;2.90;1.60;;;;;;;20.55;72.32;100976.99;107114;1271;25425;-77
2022/07/02 11:00:51;;;;;;;1.60;1.40;;;;;;;20.61;72.17;100977.27;107128;1271;24232;-78
2022/07/02 11:03:26;;;;;;;4.30;1.20;;;;;;;20.69;71.84;100980.69;106943;1273;26531;-78
2022/07/02 11:06:00;;;;;;;1.20;1.10;;;;;;;20.66;71.47;100981.69;107953;1271;22554;-79
2022/07/02 11:08:45;;;;;;;1.50;1.20;;;;;;;20.59;71.33;100979.88;108260;1271;24186;-78
2022/07/02 11:11:17;;;;;;;1.70;1.60;;;;;;;20.53;71.57;100983.31;107327;1271;22528;-77
2022/07/02 11:14:04;;;;;;;2.40;1.30;;;;;;;20.52;71.38;100979.61;106444;1271;25267;-79
2022/07/02 11:16:34;;;;;;;1.70;1.40;;;;;;;20.52;71.41;100980.88;106354;1271;23928;-79
2022/07/02 11:19:00;;;;;;;1.60;1.50;;;;;;;20.48;71.21;100977.95;106339;1271;22541;-80
2022/07/02 11:21:29;;;;;;;3.70;1.80;;;;;;;20.50;71.11;100980.38;106029;1271;25374;-78
2022/07/02 11:23:56;;;;;;;2.50;1.60;;;;;;;20.49;71.12;100986.70;106196;1271;24242;-78
2022/07/02 11:26:25;;;;;;;1.70;1.30;;;;;;;20.50;71.01;100985.55;106091;1271;23057;-76
2022/07/02 11:28:53;;;;;;;2.50;1.70;;;;;;;20.53;71.01;100985.09;105726;1279;25584;-78
2022/07/02 11:31:22;;;;;;;3.40;2.00;;;;;;;20.57;71.00;100982.62;105648;1278;25390;-79